< < Back
Terminal Aerodrome Forecast


Current Version              Previous Versions:   1  2  3  4  5  6  7  8  9  

Terminal Aerodrome Forecast

906
FTUS42 KILM 260520
TAFILM
TAF
KILM 260520Z 2606/2706 00000KT P6SM SKC
     FM261200 VRB04KT P6SM FEW250
     FM261800 15006KT P6SM SCT250=

Latest METAR

219
SAUS70 KWBC 270600 RRF
MTRILM
METAR KILM 270553Z AUTO 00000KT 10SM CLR 23/22 A3009 RMK AO2 SLP188
T02280217 10272 20228 51003


USA.gov is the U.S. government's official web portal to all federal, state and local government web resources and services.